If you wish to contribute or participate in the discussions about articles you are invited to join SKYbrary as a registered user

 Actions

Fujairah International Airport

From SKYbrary Wiki

OMFJ
Airport
ICAO: OMFJ – IATA: FJR
Summary
Name Fujairah International Airport
Region Middle East
Territory United Arab Emirates AE.gif
Location Fujairah
Serving Fujairah
Elevation 46.33 m
152 ft
152 ft46.33 m
Coordinates 25° 6' 44.00" N, 56° 19' 26.00" E
Runways
Designator Length Width Surface ROPS
11/29 3750 m12,303.15 ft
45 m147.638 ft
ASP yes/yes


METAR
Observation OMFJ 270200Z 12004KT 5000 HZ NSC 31/28 Q1000 A2954
Station Fujairah
Date/Time 27 June 2019 02:00:00
Wind direction 120°
Wind speed 04 kts
Lowest cloud amount nil significant cloud
Temperature 31°C
Dew point 28°C
Humidity 84%
QNH 1000 hPa
Weather condition n/a

Fujairah International Airport

ICAO: OMFJ IATA: FJR

Description

International airport serving the emirate of Fujairah, UAE.

Climatology

Hot Desert Climate (Köppen climate classification BWh) - Hot desert climates are typically found in the subtropics where there is unbroken sunshine for the whole year due to the stable descending air and high pressure, little or no precipitation. Maximum temperatures of 40°C to 45°C are not uncommon, particularly during the warmer months of the year.

Maps

Terrain

Loading map...

Airport Layout

Loading map...


Accidents & Serious Incidents at or in vicinity of OMFJ

None on SKYbrary